createdAt,value
2023-03-15T00:01:15.726Z,9.20
2023-03-15T00:03:43.658Z,8.60
2023-03-15T00:06:11.907Z,10.40
2023-03-15T00:08:38.927Z,8.50
2023-03-15T00:11:06.760Z,8.60
2023-03-15T00:13:33.907Z,5.30
2023-03-15T00:16:02.470Z,6.70
2023-03-15T00:18:29.033Z,7.20
2023-03-15T00:20:56.084Z,6.60
2023-03-15T00:23:22.553Z,5.60
2023-03-15T00:25:51.040Z,6.90
2023-03-15T00:28:17.955Z,7.50
2023-03-15T00:30:44.778Z,7.90
2023-03-15T00:33:12.592Z,7.60
2023-03-15T00:35:41.192Z,7.00
2023-03-15T00:38:08.329Z,6.30
2023-03-15T00:40:37.093Z,5.40
2023-03-15T00:43:05.771Z,2.90
2023-03-15T00:45:32.930Z,5.20
2023-03-15T00:47:59.877Z,13.00
2023-03-15T00:50:26.645Z,15.30
2023-03-15T00:52:53.338Z,11.90
2023-03-15T00:55:20.054Z,10.10
2023-03-15T00:57:47.444Z,12.90
2023-03-15T01:00:18.823Z,15.20
2023-03-15T01:02:45.485Z,14.50
2023-03-15T01:05:12.369Z,12.80
2023-03-15T01:07:39.047Z,23.90
2023-03-15T01:10:07.532Z,12.90
2023-03-15T01:12:34.696Z,15.10
2023-03-15T01:15:03.855Z,9.70
2023-03-15T01:17:30.541Z,10.10
2023-03-15T01:19:58.727Z,14.70
2023-03-15T01:22:26.618Z,5.40
2023-03-15T01:24:53.453Z,7.50
2023-03-15T01:27:20.729Z,3.80
2023-03-15T01:29:47.606Z,3.30
2023-03-15T01:32:14.640Z,4.70
2023-03-15T01:34:41.592Z,5.50
2023-03-15T01:37:09.535Z,5.80
2023-03-15T01:39:36.048Z,4.70
2023-03-15T01:42:03.063Z,5.10
2023-03-15T01:45:26.063Z,4.20
2023-03-15T01:47:52.691Z,3.10
2023-03-15T01:50:19.557Z,3.60
2023-03-15T01:52:46.184Z,3.40
2023-03-15T01:55:16.737Z,4.30
2023-03-15T01:57:51.839Z,4.40
2023-03-15T02:00:20.393Z,4.90
2023-03-15T02:02:49.150Z,4.90
2023-03-15T02:05:21.882Z,5.20
2023-03-15T02:07:50.292Z,5.70
2023-03-15T02:10:23.424Z,4.10
2023-03-15T02:12:52.476Z,4.90
2023-03-15T02:15:19.274Z,6.40
2023-03-15T02:17:48.072Z,4.90
2023-03-15T02:20:23.542Z,4.90
2023-03-15T02:23:00.364Z,5.00
2023-03-15T02:25:42.368Z,5.00
2023-03-15T02:28:12.330Z,5.40
2023-03-15T02:30:39.499Z,6.40
2023-03-15T02:33:11.048Z,6.50
2023-03-15T02:35:37.631Z,8.70
2023-03-15T02:38:04.156Z,9.10
2023-03-15T02:40:31.208Z,9.60
2023-03-15T02:43:04.320Z,10.70
2023-03-15T02:45:36.834Z,11.00
2023-03-15T02:48:05.619Z,11.10
2023-03-15T02:50:32.484Z,10.40
2023-03-15T02:52:58.977Z,10.50
2023-03-15T02:55:25.555Z,11.80
2023-03-15T02:57:52.155Z,11.60
2023-03-15T03:00:18.922Z,10.00
2023-03-15T03:02:47.577Z,13.00
2023-03-15T03:05:15.725Z,10.70
2023-03-15T03:07:42.488Z,9.30
2023-03-15T03:10:11.107Z,10.40
2023-03-15T03:12:37.560Z,7.70
2023-03-15T03:15:05.207Z,8.50
2023-03-15T03:17:33.272Z,10.30
2023-03-15T03:19:59.816Z,6.30
2023-03-15T03:22:26.468Z,7.50
2023-03-15T03:24:53.146Z,8.80
2023-03-15T03:27:19.606Z,7.90
2023-03-15T03:29:46.226Z,8.50
2023-03-15T03:32:12.825Z,8.30
2023-03-15T03:34:39.502Z,6.60
2023-03-15T03:37:06.275Z,5.90
2023-03-15T03:39:32.809Z,7.60
2023-03-15T03:41:59.449Z,6.30
2023-03-15T03:44:26.105Z,8.10
2023-03-15T03:46:54.756Z,7.40
2023-03-15T03:49:21.250Z,6.90
2023-03-15T03:51:47.693Z,5.80
2023-03-15T03:54:17.116Z,6.10
2023-03-15T03:56:44.155Z,4.60
2023-03-15T03:59:10.589Z,5.10
2023-03-15T04:01:37.145Z,6.80
2023-03-15T04:04:03.697Z,5.20
2023-03-15T04:06:30.473Z,5.50
2023-03-15T04:08:57.307Z,4.80
2023-03-15T04:11:23.953Z,8.20
2023-03-15T04:13:50.501Z,5.70
2023-03-15T04:16:17.081Z,5.50
2023-03-15T04:18:43.728Z,5.80
2023-03-15T04:21:10.172Z,7.10
2023-03-15T04:23:38.338Z,8.80
2023-03-15T04:26:05.703Z,9.00
2023-03-15T04:28:32.337Z,8.00
2023-03-15T04:30:59.105Z,9.70
2023-03-15T04:33:26.243Z,9.60
2023-03-15T04:35:52.747Z,5.50
2023-03-15T04:38:20.072Z,6.80
2023-03-15T04:40:46.725Z,7.20
2023-03-15T04:43:13.313Z,6.40
2023-03-15T04:45:39.943Z,7.90
2023-03-15T04:48:10.059Z,9.60
2023-03-15T04:50:36.561Z,6.20
2023-03-15T04:53:03.064Z,10.30
2023-03-15T04:55:29.735Z,8.60
2023-03-15T04:57:56.126Z,8.10
2023-03-15T05:00:23.060Z,7.00
2023-03-15T05:02:49.706Z,10.10
2023-03-15T05:05:16.253Z,8.20
2023-03-15T05:07:42.729Z,12.50
2023-03-15T05:10:10.218Z,10.30
2023-03-15T05:12:36.678Z,14.80
2023-03-15T05:15:03.516Z,27.80
2023-03-15T05:17:30.093Z,9.60
2023-03-15T05:19:56.580Z,11.80
2023-03-15T05:22:23.041Z,10.20
2023-03-15T05:24:49.633Z,10.80
2023-03-15T05:27:16.178Z,11.70
2023-03-15T05:29:42.719Z,12.90
2023-03-15T05:32:09.370Z,11.70
2023-03-15T05:34:35.848Z,11.10
2023-03-15T05:37:02.523Z,17.60
2023-03-15T05:39:29.114Z,13.60
2023-03-15T05:41:55.748Z,15.90
2023-03-15T05:44:22.396Z,13.20
2023-03-15T05:46:48.962Z,14.20
2023-03-15T05:49:17.061Z,13.20
2023-03-15T05:51:43.665Z,17.80
2023-03-15T05:54:10.409Z,13.10
2023-03-15T05:56:36.855Z,13.30
2023-03-15T05:59:03.318Z,13.20
2023-03-15T06:01:29.969Z,11.80
2023-03-15T06:03:56.696Z,15.30
2023-03-15T06:06:23.221Z,17.50
2023-03-15T06:08:49.659Z,15.80
2023-03-15T06:11:16.271Z,14.40
2023-03-15T06:13:42.807Z,15.80
2023-03-15T06:16:09.458Z,14.20
2023-03-15T06:18:35.864Z,20.00
2023-03-15T06:21:02.343Z,15.70
2023-03-15T06:23:28.853Z,15.30
2023-03-15T06:25:55.458Z,17.30
2023-03-15T06:28:21.959Z,17.50
2023-03-15T06:30:48.534Z,19.70
2023-03-15T06:33:15.040Z,21.30
2023-03-15T06:35:41.605Z,21.30
2023-03-15T06:38:08.863Z,25.10
2023-03-15T06:40:36.469Z,22.60
2023-03-15T06:43:03.008Z,25.70
2023-03-15T06:45:29.558Z,24.20
2023-03-15T06:47:55.970Z,21.60
2023-03-15T06:50:26.166Z,20.50
2023-03-15T06:52:52.673Z,22.30
2023-03-15T06:55:19.115Z,25.80
2023-03-15T06:57:45.799Z,29.50
2023-03-15T07:00:13.066Z,21.70
2023-03-15T07:02:39.792Z,19.20
2023-03-15T07:05:07.933Z,20.40
2023-03-15T07:07:34.501Z,20.30
2023-03-15T07:10:01.055Z,17.00
2023-03-15T07:12:27.841Z,18.70
2023-03-15T07:14:54.419Z,21.50
2023-03-15T07:17:20.815Z,16.80
2023-03-15T07:19:56.184Z,19.20
2023-03-15T07:22:23.484Z,18.30
2023-03-15T07:24:50.040Z,16.50
2023-03-15T07:27:19.237Z,14.90
2023-03-15T07:29:46.004Z,20.60
2023-03-15T07:32:12.468Z,16.10
2023-03-15T07:34:39.380Z,14.60
2023-03-15T07:37:05.920Z,16.30
2023-03-15T07:39:32.534Z,16.80
2023-03-15T07:41:59.594Z,20.50
2023-03-15T07:44:26.360Z,19.50
2023-03-15T07:46:53.240Z,21.20
2023-03-15T07:49:19.864Z,19.20
2023-03-15T07:51:50.089Z,20.40
2023-03-15T07:54:16.648Z,20.70
2023-03-15T07:56:43.179Z,17.80
2023-03-15T07:59:09.819Z,24.20
2023-03-15T08:01:36.699Z,15.20
2023-03-15T08:04:03.722Z,10.60
2023-03-15T08:06:30.170Z,14.40
2023-03-15T08:08:56.633Z,12.70
2023-03-15T08:11:23.266Z,18.60
2023-03-15T08:13:49.694Z,17.30
2023-03-15T08:16:16.356Z,15.70
2023-03-15T08:18:42.870Z,11.00
2023-03-15T08:21:09.269Z,12.30
2023-03-15T08:23:35.820Z,16.30
2023-03-15T08:26:02.467Z,16.30
2023-03-15T08:28:28.950Z,15.30
2023-03-15T08:30:55.703Z,13.60
2023-03-15T08:33:22.263Z,13.70
2023-03-15T08:35:53.692Z,16.10
2023-03-15T08:40:46.610Z,13.30
2023-03-15T08:43:13.029Z,13.90
2023-03-15T08:45:56.932Z,10.40
2023-03-15T08:48:25.893Z,16.40
2023-03-15T08:50:52.439Z,9.50
2023-03-15T08:53:22.952Z,14.60
2023-03-15T08:55:49.628Z,12.90
2023-03-15T08:58:16.351Z,14.20
2023-03-15T09:00:42.794Z,12.30
2023-03-15T09:03:09.467Z,14.30
2023-03-15T09:05:36.435Z,11.10
2023-03-15T09:08:03.256Z,14.30
2023-03-15T09:10:29.693Z,18.00
2023-03-15T09:12:56.451Z,12.30
2023-03-15T09:15:22.959Z,10.20
2023-03-15T09:17:50.664Z,12.40
2023-03-15T09:20:17.182Z,10.40
2023-03-15T09:22:44.985Z,9.80
2023-03-15T09:25:11.551Z,10.90
2023-03-15T09:27:38.296Z,11.90
2023-03-15T09:30:05.651Z,10.20
2023-03-15T09:32:32.549Z,10.50
2023-03-15T09:34:59.059Z,11.10
2023-03-15T09:37:25.459Z,11.80
2023-03-15T09:39:52.000Z,9.90
2023-03-15T09:42:56.198Z,13.00
2023-03-15T09:45:58.437Z,20.30
2023-03-15T09:48:33.003Z,15.30
2023-03-15T09:51:14.179Z,14.40
2023-03-15T09:54:04.913Z,12.50
2023-03-15T09:56:39.557Z,13.50
2023-03-15T09:59:06.802Z,15.00
2023-03-15T10:01:39.473Z,14.00
2023-03-15T10:04:12.511Z,16.10
2023-03-15T10:06:45.325Z,14.40
2023-03-15T10:09:18.199Z,13.80
2023-03-15T10:12:00.279Z,12.30
2023-03-15T10:15:04.954Z,16.70
2023-03-15T10:17:59.447Z,16.50
2023-03-15T10:20:33.202Z,13.90
2023-03-15T10:23:15.549Z,13.40
2023-03-15T10:25:43.689Z,12.60
2023-03-15T10:28:14.304Z,24.50
2023-03-15T10:30:47.425Z,13.90
2023-03-15T10:33:23.661Z,19.30
2023-03-15T10:35:52.487Z,13.50
2023-03-15T10:38:24.828Z,15.50
2023-03-15T10:40:53.986Z,24.60
2023-03-15T10:43:23.805Z,18.40
2023-03-15T10:46:01.486Z,16.50
2023-03-15T10:48:31.211Z,15.20
2023-03-15T10:51:03.184Z,18.00
2023-03-15T10:53:29.644Z,14.70
2023-03-15T10:56:05.135Z,11.80
2023-03-15T10:59:01.569Z,12.60
2023-03-15T11:01:34.823Z,11.70
2023-03-15T11:04:06.797Z,16.10
2023-03-15T11:06:48.350Z,16.10
2023-03-15T11:11:57.364Z,12.10
2023-03-15T11:14:24.625Z,9.60
2023-03-15T11:16:55.290Z,9.80
2023-03-15T11:19:26.882Z,17.90
2023-03-15T11:24:26.354Z,10.70
2023-03-15T11:26:55.913Z,13.00
2023-03-15T11:29:35.437Z,15.10
2023-03-15T11:32:12.260Z,11.80
2023-03-15T11:34:38.638Z,14.10
2023-03-15T11:37:14.236Z,13.50
2023-03-15T11:39:53.782Z,12.60
2023-03-15T11:42:34.128Z,11.70
2023-03-15T11:45:09.036Z,12.10
2023-03-15T11:47:51.486Z,11.70
2023-03-15T11:50:18.634Z,10.30
2023-03-15T11:52:50.167Z,13.50
2023-03-15T11:55:24.985Z,9.70
2023-03-15T11:57:54.550Z,8.80
2023-03-15T12:00:31.970Z,9.60
2023-03-15T12:03:19.890Z,9.60
2023-03-15T12:05:49.430Z,11.10
2023-03-15T12:08:45.133Z,11.90
2023-03-15T12:11:18.689Z,17.00
2023-03-15T12:13:57.136Z,12.90
2023-03-15T12:16:27.272Z,9.80
2023-03-15T12:18:58.351Z,11.50
2023-03-15T12:21:44.785Z,13.80
2023-03-15T12:24:21.467Z,11.80
2023-03-15T12:27:03.491Z,12.90
2023-03-15T12:29:32.609Z,12.30
2023-03-15T12:31:59.011Z,14.60
2023-03-15T12:34:42.656Z,8.80
2023-03-15T12:37:38.369Z,8.50
2023-03-15T12:40:17.245Z,9.20
2023-03-15T12:42:43.686Z,11.10
2023-03-15T12:45:16.563Z,10.00
2023-03-15T12:47:52.212Z,12.70
2023-03-15T12:50:56.653Z,9.70
2023-03-15T12:53:32.027Z,8.00
2023-03-15T12:56:47.224Z,11.50
2023-03-15T12:59:53.565Z,10.80
2023-03-15T13:02:42.210Z,16.50
2023-03-15T13:05:09.696Z,11.40
2023-03-15T13:07:57.668Z,14.90
2023-03-15T13:10:49.955Z,10.90
2023-03-15T13:13:43.800Z,9.70
2023-03-15T13:16:29.869Z,8.20
2023-03-15T13:19:21.737Z,7.40
2023-03-15T13:24:27.318Z,8.10
2023-03-15T13:27:09.223Z,13.10
2023-03-15T13:29:36.588Z,9.70
2023-03-15T13:32:17.213Z,10.60
2023-03-15T13:34:48.329Z,7.70
2023-03-15T13:37:26.746Z,11.20
2023-03-15T13:40:13.462Z,9.90
2023-03-15T13:42:40.876Z,10.10
2023-03-15T13:45:15.368Z,8.40
2023-03-15T13:47:44.426Z,12.00
2023-03-15T13:50:16.957Z,10.40
2023-03-15T13:52:44.317Z,12.60
2023-03-15T13:55:22.314Z,14.40
2023-03-15T13:57:57.055Z,10.20
2023-03-15T14:00:24.389Z,12.30
2023-03-15T14:03:00.884Z,11.40
2023-03-15T14:05:31.759Z,7.70
2023-03-15T14:08:05.688Z,8.80
2023-03-15T14:10:35.106Z,9.90
2023-03-15T14:13:24.888Z,9.90
2023-03-15T14:16:01.908Z,13.10
2023-03-15T14:18:46.305Z,9.10
2023-03-15T14:21:32.229Z,15.50
2023-03-15T14:24:06.741Z,9.10
2023-03-15T14:26:36.092Z,9.30
2023-03-15T14:29:15.726Z,14.50
2023-03-15T14:31:49.303Z,11.80
2023-03-15T14:34:30.876Z,8.20
2023-03-15T14:39:42.013Z,17.00
2023-03-15T14:42:11.948Z,10.40
2023-03-15T14:44:38.729Z,10.00
2023-03-15T14:47:16.958Z,7.70
2023-03-15T14:49:43.606Z,10.20
2023-03-15T14:52:12.833Z,8.50
2023-03-15T14:54:48.495Z,11.80
2023-03-15T14:57:14.971Z,8.50
2023-03-15T14:59:41.668Z,7.10
2023-03-15T15:02:18.313Z,9.70
2023-03-15T15:04:44.894Z,14.90
2023-03-15T15:07:14.201Z,12.10
2023-03-15T15:09:46.640Z,13.10
2023-03-15T15:12:13.424Z,11.40
2023-03-15T15:14:39.855Z,15.70
2023-03-15T15:17:06.409Z,11.70
2023-03-15T15:19:32.877Z,15.80
2023-03-15T15:21:59.387Z,13.00
2023-03-15T15:24:27.280Z,10.90
2023-03-15T15:26:54.013Z,11.70
2023-03-15T15:29:20.466Z,14.00
2023-03-15T15:31:47.293Z,12.40
2023-03-15T15:34:13.936Z,10.80
2023-03-15T15:36:43.376Z,11.10
2023-03-15T15:39:23.041Z,32.70
2023-03-15T15:41:50.103Z,12.90
2023-03-15T15:44:19.769Z,18.80
2023-03-15T15:46:46.315Z,10.00
2023-03-15T15:49:13.260Z,12.10
2023-03-15T15:51:42.494Z,13.20
2023-03-15T15:54:15.629Z,12.60
2023-03-15T15:56:50.930Z,13.60
2023-03-15T15:59:19.106Z,13.40
2023-03-15T16:01:59.377Z,13.30
2023-03-15T16:04:29.883Z,12.80
2023-03-15T16:07:02.852Z,13.80
2023-03-15T16:09:33.443Z,10.40
2023-03-15T16:11:59.852Z,12.80
2023-03-15T16:14:26.763Z,16.40
2023-03-15T16:16:53.241Z,22.60
2023-03-15T16:19:19.928Z,16.80
2023-03-15T16:21:49.867Z,46.00
2023-03-15T16:24:24.074Z,23.80
2023-03-15T16:26:51.368Z,18.50
2023-03-15T16:29:21.010Z,17.40
2023-03-15T16:31:49.855Z,19.40
2023-03-15T16:34:18.976Z,17.20
2023-03-15T16:36:49.575Z,18.80
2023-03-15T16:39:17.418Z,16.80
2023-03-15T16:41:43.990Z,19.50
2023-03-15T16:44:15.696Z,17.30
2023-03-15T16:46:42.805Z,21.60
2023-03-15T16:49:09.956Z,16.10
2023-03-15T16:51:45.200Z,20.70
2023-03-15T16:54:24.305Z,30.30
2023-03-15T16:56:57.444Z,37.60
2023-03-15T16:59:23.992Z,46.70
2023-03-15T17:01:50.624Z,68.50
2023-03-15T17:04:17.558Z,31.40
2023-03-15T17:06:48.958Z,19.70
2023-03-15T17:09:19.848Z,28.70
2023-03-15T17:11:48.071Z,80.00
2023-03-15T17:14:29.577Z,38.40
2023-03-15T17:16:56.221Z,22.60
2023-03-15T17:19:22.660Z,68.20
2023-03-15T17:21:49.304Z,22.80
2023-03-15T17:24:16.033Z,19.60
2023-03-15T17:26:42.495Z,18.30
2023-03-15T17:29:11.009Z,46.10
2023-03-15T17:31:37.681Z,21.70
2023-03-15T17:34:04.180Z,15.20
2023-03-15T17:36:36.167Z,14.40
2023-03-15T17:39:03.997Z,13.20
2023-03-15T17:41:33.003Z,11.60
2023-03-15T17:43:59.514Z,12.40
2023-03-15T17:46:27.699Z,11.20
2023-03-15T17:48:54.921Z,20.00
2023-03-15T17:51:24.201Z,14.90
2023-03-15T17:53:51.453Z,12.80
2023-03-15T17:56:18.732Z,13.60
2023-03-15T17:58:45.886Z,20.10
2023-03-15T18:01:25.340Z,10.60
2023-03-15T18:03:52.176Z,16.80
2023-03-15T18:06:20.621Z,18.40
2023-03-15T18:08:51.353Z,17.70
2023-03-15T18:11:34.254Z,14.60
2023-03-15T18:14:00.817Z,13.90
2023-03-15T18:16:27.282Z,19.40
2023-03-15T18:18:53.895Z,15.10
2023-03-15T18:21:23.908Z,10.90
2023-03-15T18:23:51.177Z,11.90
2023-03-15T18:26:19.574Z,16.10
2023-03-15T18:28:46.819Z,15.70
2023-03-15T18:31:19.104Z,20.70
2023-03-15T18:33:46.242Z,28.10
2023-03-15T18:36:12.873Z,37.70
2023-03-15T18:38:40.075Z,16.50
2023-03-15T18:41:27.495Z,24.50
2023-03-15T18:43:54.034Z,21.10
2023-03-15T18:46:23.188Z,16.60
2023-03-15T18:48:50.290Z,17.80
2023-03-15T18:51:17.582Z,24.20
2023-03-15T18:53:44.935Z,42.90
2023-03-15T18:56:20.601Z,22.60
2023-03-15T18:58:48.567Z,17.40
2023-03-15T19:01:16.837Z,18.30
2023-03-15T19:03:43.610Z,15.40
2023-03-15T19:06:12.086Z,51.20
2023-03-15T19:08:39.206Z,23.90
2023-03-15T19:11:08.508Z,18.00
2023-03-15T19:13:35.248Z,17.10
2023-03-15T19:16:02.379Z,17.10
2023-03-15T19:18:29.808Z,27.00
2023-03-15T19:20:56.288Z,33.80
2023-03-15T19:23:22.742Z,29.90
2023-03-15T19:25:49.808Z,39.80
2023-03-15T19:28:16.712Z,31.50
2023-03-15T19:30:43.216Z,35.40
2023-03-15T19:33:10.190Z,22.50
2023-03-15T19:35:36.929Z,25.40
2023-03-15T19:38:03.733Z,21.40
2023-03-15T19:40:30.281Z,25.80
2023-03-15T19:42:56.867Z,25.50
2023-03-15T19:45:23.892Z,17.10
2023-03-15T19:47:50.434Z,24.40
2023-03-15T19:50:17.169Z,140.60
2023-03-15T19:52:44.366Z,99.50
2023-03-15T19:55:12.710Z,52.50
2023-03-15T19:57:39.288Z,46.60
2023-03-15T20:00:06.751Z,40.40
2023-03-15T20:02:33.380Z,47.30
2023-03-15T20:04:59.834Z,33.00
2023-03-15T20:07:26.383Z,30.60
2023-03-15T20:09:53.128Z,26.10
2023-03-15T20:12:21.319Z,82.70
2023-03-15T20:14:47.861Z,108.90
2023-03-15T20:17:14.471Z,44.80
2023-03-15T20:19:40.875Z,56.30
2023-03-15T20:22:07.401Z,64.90
2023-03-15T20:24:33.990Z,21.00
2023-03-15T20:27:00.496Z,206.50
2023-03-15T20:29:26.940Z,127.90
2023-03-15T20:31:53.755Z,89.10
2023-03-15T20:34:20.433Z,164.30
2023-03-15T20:36:46.810Z,227.10
2023-03-15T20:39:13.319Z,92.50
2023-03-15T20:41:39.981Z,45.20
2023-03-15T20:44:07.555Z,52.40
2023-03-15T20:46:34.547Z,68.40
2023-03-15T20:49:01.438Z,28.40
2023-03-15T20:51:28.022Z,22.60
2023-03-15T20:53:54.640Z,27.20
2023-03-15T20:56:21.104Z,24.30
2023-03-15T20:58:48.041Z,22.10
